Startpagina
METAR-TAF:

METAR-TAF

Vliegvelden :

Luchthaven Svalbard Longyear

Longyearbyen, Noorwegen

breedte: 78-15N, lengte: 015-28E, hoogte: 2 m

Actueel weer

Dit bericht is 16 minuten geleden gemaakt, om 18:50 UTC
Wind 11 kt uit het oostzuidoosten
Temperatuur 0°C
Vochtigheid 74%
Druk 1013 hPa
Zicht 10 km of meer
Gebroken wolken op 2900 ft

METAR: ENSB 191850Z 12011KT 9999 BKN029 00/M04 Q1013 RMK WIND 1400FT 11015KT

Tijdstip: 21:06 (19:06 UTC)

Verwachting

Verwachting geldig van 19 om 18 UTC tot 20 om 18 UTC
Wind 15 kt uit het zuidoosten
Zicht 10 km of meer
Weinig wolken op 2000 ft
Gebroken wolken op 3000 ft
Wijzigt naar
van 20 om 02 UTC tot 20 om 04 UTC
Wind 25 kt uit het oostzuidoosten

TAF: ENSB 1918/2018 13015KT 9999 FEW020 BKN030 BECMG 2002/2004 12025KT

Waarnemingen en weersverwachtingen van meer dan 4000 vliegvelden (METAR en TAF).

De beschikbare stations zijn de gele en rode punten op de kaart.

Ga met uw muis naar het station om de naam te zien.

Klik dan om waarnemingen en weersverwachtingen te zien.

kaart wijzigen: klik op de groene knoppen met een zwart kruis om in te zoomen, op de groene knop met een streepje om uit te zoomen of op de groene pijlen voor aangrenzende kaarten.


METAR-TAF: